Thornton, Idaho
Current Conditions -  °F | °C
As of 12:53 AM on Friday 19 Dec 2014 (Local Time) from KRXE Reporting Station
Overcast Overcast  
Wind Chill: 27°   Ceiling: 3600
Heat Index: 32°   Visibility: 10mi
Dew Point: 29°   Wind: 5mph
Humidity: 88%   Direction: 210°SSW
Pressure: 30.12"   Gusts: NA
Location:  43.7568°N, 111.624°W
Report Text: KRXE 190753Z AUTO 21004KT 10SM OVC036 00/M02 A3012 RMK AO2 SNB29E42 SLP220 P0000 T00001017
Loading
Personal Weather Stations






























Interactive Weather Map New forecast layout! Learn more

10-Day Weather Forecast

Advertisements
Track Severe Weather on mobile